createdAt,value
2017-03-04T00:00:56.046Z,20.34
2017-03-04T00:02:05.566Z,20.24
2017-03-04T00:03:15.517Z,20.25
2017-03-04T00:04:24.702Z,20.24
2017-03-04T00:05:34.287Z,20.32
2017-03-04T00:06:43.854Z,20.36
2017-03-04T00:07:54.554Z,20.26
2017-03-04T00:09:04.128Z,20.29
2017-03-04T00:10:13.316Z,20.31
2017-03-04T00:11:22.460Z,20.24
2017-03-04T00:12:31.565Z,20.31
2017-03-04T00:13:40.674Z,20.19
2017-03-04T00:14:50.582Z,20.22
2017-03-04T00:15:59.772Z,20.28
2017-03-04T00:17:09.342Z,20.22
2017-03-04T00:18:19.329Z,20.21
2017-03-04T00:19:28.886Z,20.24
2017-03-04T00:20:38.060Z,20.18
2017-03-04T00:21:48.026Z,20.18
2017-03-04T00:22:57.964Z,20.21
2017-03-04T00:24:07.100Z,20.16
2017-03-04T00:25:17.781Z,20.19
2017-03-04T00:26:28.112Z,20.1
2017-03-04T00:27:37.689Z,20.16
2017-03-04T00:28:48.197Z,20.19
2017-03-04T00:29:57.357Z,20.1
2017-03-04T00:31:06.564Z,20.16
2017-03-04T00:32:16.517Z,20.13
2017-03-04T00:33:25.703Z,20.16
2017-03-04T00:34:35.648Z,20.06
2017-03-04T00:35:44.821Z,20.07
2017-03-04T00:36:54.959Z,20.13
2017-03-04T00:38:04.545Z,20.13
2017-03-04T00:39:13.702Z,20.11
2017-03-04T00:40:23.631Z,20.03
2017-03-04T00:41:33.586Z,20.03
2017-03-04T00:42:43.939Z,20.07
2017-03-04T00:43:53.520Z,20.11
2017-03-04T00:45:03.479Z,20.04
2017-03-04T00:46:13.049Z,20.09
2017-03-04T00:47:22.990Z,20.03
2017-03-04T00:48:32.195Z,20.07
2017-03-04T00:49:41.816Z,20.02
2017-03-04T00:50:51.381Z,20.06
2017-03-04T00:52:00.903Z,20
2017-03-04T00:53:11.038Z,20
2017-03-04T00:54:20.559Z,20.04
2017-03-04T00:55:30.492Z,20.02
2017-03-04T00:56:40.053Z,20.04
2017-03-04T00:57:49.573Z,20.02
2017-03-04T00:58:59.889Z,20.06
2017-03-04T01:00:09.455Z,20.04
2017-03-04T01:01:19.022Z,20.06
2017-03-04T01:02:28.211Z,20.07
2017-03-04T01:03:37.772Z,20.02
2017-03-04T01:04:47.356Z,20.04
2017-03-04T01:05:56.944Z,20.02
2017-03-04T01:07:06.898Z,20.04
2017-03-04T01:08:16.489Z,20.02
2017-03-04T01:09:26.443Z,19.99
2017-03-04T01:10:35.601Z,19.95
2017-03-04T01:11:44.792Z,19.94
2017-03-04T01:12:53.574Z,19.94
2017-03-04T01:14:03.161Z,19.92
2017-03-04T01:15:13.112Z,20
2017-03-04T01:16:22.309Z,19.99
2017-03-04T01:17:32.276Z,19.99
2017-03-04T01:18:42.618Z,19.99
2017-03-04T01:19:52.183Z,19.96
2017-03-04T01:21:02.151Z,19.85
2017-03-04T01:22:12.519Z,19.91
2017-03-04T01:23:21.708Z,19.79
2017-03-04T01:24:30.853Z,19.84
2017-03-04T01:25:40.380Z,19.86
2017-03-04T01:26:49.552Z,19.81
2017-03-04T01:27:58.739Z,19.91
2017-03-04T01:29:07.881Z,19.77
2017-03-04T01:30:17.429Z,19.81
2017-03-04T01:31:27.384Z,19.79
2017-03-04T01:32:38.114Z,19.82
2017-03-04T01:33:47.306Z,19.81
2017-03-04T01:34:56.499Z,19.81
2017-03-04T01:36:05.660Z,19.85
2017-03-04T01:37:15.618Z,19.79
2017-03-04T01:38:25.179Z,19.91
2017-03-04T01:39:34.701Z,19.86
2017-03-04T01:40:44.243Z,19.82
2017-03-04T01:41:54.245Z,19.82
2017-03-04T01:43:03.792Z,19.79
2017-03-04T01:44:12.964Z,19.82
2017-03-04T01:45:22.164Z,19.84
2017-03-04T01:46:31.726Z,19.82
2017-03-04T01:47:40.899Z,19.89
2017-03-04T01:48:51.240Z,19.79
2017-03-04T01:50:01.195Z,19.77
2017-03-04T01:51:11.540Z,19.77
2017-03-04T01:52:20.724Z,19.76
2017-03-04T01:53:31.066Z,19.79
2017-03-04T01:54:41.400Z,19.84
2017-03-04T01:55:50.984Z,19.85
2017-03-04T01:57:00.241Z,19.79
2017-03-04T01:58:09.833Z,19.76
2017-03-04T01:59:20.173Z,19.77
2017-03-04T02:00:29.712Z,19.84
2017-03-04T02:01:38.815Z,19.82
2017-03-04T02:02:48.758Z,19.82
2017-03-04T02:03:57.962Z,19.77
2017-03-04T02:05:07.127Z,19.82
2017-03-04T02:06:16.666Z,19.79
2017-03-04T02:07:27.045Z,19.76
2017-03-04T02:08:36.620Z,19.77
2017-03-04T02:09:45.809Z,19.76
2017-03-04T02:10:55.956Z,19.81
2017-03-04T02:12:05.557Z,19.76
2017-03-04T02:13:15.508Z,19.74
2017-03-04T02:14:25.483Z,19.81
2017-03-04T02:15:35.426Z,19.73
2017-03-04T02:16:44.975Z,19.74
2017-03-04T02:17:54.169Z,19.7
2017-03-04T02:19:03.727Z,19.67
2017-03-04T02:20:14.064Z,19.74
2017-03-04T02:21:24.415Z,19.74
2017-03-04T02:22:33.602Z,19.69
2017-03-04T02:23:43.932Z,19.76
2017-03-04T02:24:53.509Z,19.76
2017-03-04T02:26:03.330Z,19.76
2017-03-04T02:27:12.506Z,19.73
2017-03-04T02:28:22.471Z,19.64
2017-03-04T02:29:32.797Z,19.73
2017-03-04T02:30:42.739Z,19.59
2017-03-04T02:31:52.282Z,19.76
2017-03-04T02:33:01.843Z,19.64
2017-03-04T02:34:11.396Z,19.66
2017-03-04T02:35:21.697Z,19.66
2017-03-04T02:36:31.219Z,19.64
2017-03-04T02:37:40.377Z,19.63
2017-03-04T02:38:49.908Z,19.77
2017-03-04T02:39:58.701Z,19.63
2017-03-04T02:41:07.882Z,19.62
2017-03-04T02:42:17.847Z,19.62
2017-03-04T02:43:26.613Z,19.66
2017-03-04T02:44:35.353Z,19.66
2017-03-04T02:45:44.885Z,19.59
2017-03-04T02:46:54.816Z,19.63
2017-03-04T02:48:04.386Z,19.63
2017-03-04T02:49:14.764Z,19.62
2017-03-04T02:50:25.117Z,19.69
2017-03-04T02:51:34.670Z,19.66
2017-03-04T02:52:44.624Z,19.7
2017-03-04T02:53:54.205Z,19.63
2017-03-04T02:55:03.346Z,19.62
2017-03-04T02:56:13.288Z,19.62
2017-03-04T02:57:22.849Z,19.62
2017-03-04T02:58:32.378Z,19.64
2017-03-04T02:59:41.143Z,19.63
2017-03-04T03:00:51.108Z,19.62
2017-03-04T03:02:01.121Z,19.62
2017-03-04T03:03:11.114Z,19.64
2017-03-04T03:04:20.712Z,19.55
2017-03-04T03:05:29.893Z,19.59
2017-03-04T03:06:39.467Z,19.56
2017-03-04T03:07:48.650Z,19.56
2017-03-04T03:08:59.408Z,19.54
2017-03-04T03:10:09.374Z,19.58
2017-03-04T03:11:18.968Z,19.52
2017-03-04T03:12:28.547Z,19.55
2017-03-04T03:13:38.501Z,19.58
2017-03-04T03:14:48.450Z,19.52
2017-03-04T03:15:58.033Z,19.58
2017-03-04T03:17:07.958Z,19.58
2017-03-04T03:18:17.878Z,19.54
2017-03-04T03:19:27.049Z,19.62
2017-03-04T03:20:37.403Z,19.51
2017-03-04T03:21:47.357Z,19.51
2017-03-04T03:22:58.081Z,19.59
2017-03-04T03:24:08.428Z,19.55
2017-03-04T03:25:18.001Z,19.56
2017-03-04T03:26:27.596Z,19.48
2017-03-04T03:27:37.142Z,19.49
2017-03-04T03:28:46.305Z,19.54
2017-03-04T03:29:55.109Z,19.49
2017-03-04T03:31:04.311Z,19.51
2017-03-04T03:32:14.289Z,19.51
2017-03-04T03:33:24.213Z,19.52
2017-03-04T03:34:40.391Z,19.51
2017-03-04T03:35:49.615Z,19.54
2017-03-04T03:36:59.212Z,19.49
2017-03-04T03:38:09.229Z,19.56
2017-03-04T03:39:18.035Z,19.49
2017-03-04T03:40:27.855Z,19.47
2017-03-04T03:41:37.070Z,19.47
2017-03-04T03:42:47.450Z,19.54
2017-03-04T03:43:57.455Z,19.54
2017-03-04T03:45:07.842Z,19.45
2017-03-04T03:46:17.049Z,19.41
2017-03-04T03:47:26.233Z,19.54
2017-03-04T03:48:35.786Z,19.54
2017-03-04T03:49:46.150Z,19.54
2017-03-04T03:50:56.127Z,19.44
2017-03-04T03:52:06.095Z,19.45
2017-03-04T03:53:15.667Z,19.48
2017-03-04T03:54:24.872Z,19.39
2017-03-04T03:55:34.849Z,19.39
2017-03-04T03:56:45.610Z,19.45
2017-03-04T03:57:55.576Z,19.48
2017-03-04T03:59:05.580Z,19.39
2017-03-04T04:00:15.173Z,19.41
2017-03-04T04:01:24.768Z,19.45
2017-03-04T04:02:34.750Z,19.47
2017-03-04T04:03:45.081Z,19.45
2017-03-04T04:04:55.226Z,19.37
2017-03-04T04:06:04.460Z,19.47
2017-03-04T04:07:15.206Z,19.37
2017-03-04T04:08:24.035Z,19.36
2017-03-04T04:09:34.009Z,19.39
2017-03-04T04:10:44.374Z,19.39
2017-03-04T04:11:54.347Z,19.36
2017-03-04T04:13:03.941Z,19.37
2017-03-04T04:14:13.164Z,19.37
2017-03-04T04:15:23.949Z,19.33
2017-03-04T04:16:33.107Z,19.41
2017-03-04T04:17:42.668Z,19.31
2017-03-04T04:18:52.284Z,19.31
2017-03-04T04:20:01.867Z,19.4
2017-03-04T04:21:11.093Z,19.37
2017-03-04T04:22:20.121Z,19.41
2017-03-04T04:23:29.731Z,19.29
2017-03-04T04:24:39.718Z,19.36
2017-03-04T04:25:49.321Z,19.34
2017-03-04T04:26:58.528Z,19.34
2017-03-04T04:28:08.519Z,19.36
2017-03-04T04:29:18.111Z,19.37
2017-03-04T04:30:26.931Z,19.44
2017-03-04T04:31:36.122Z,19.49
2017-03-04T04:32:45.312Z,19.33
2017-03-04T04:33:54.496Z,19.4
2017-03-04T04:35:04.798Z,19.37
2017-03-04T04:36:14.340Z,19.37
2017-03-04T04:37:23.501Z,19.26
2017-03-04T04:38:33.106Z,19.24
2017-03-04T04:39:43.109Z,19.37
2017-03-04T04:40:53.442Z,19.22
2017-03-04T04:42:02.259Z,19.31
2017-03-04T04:43:12.636Z,19.37
2017-03-04T04:44:22.232Z,19.39
2017-03-04T04:45:31.827Z,19.34
2017-03-04T04:46:41.416Z,19.34
2017-03-04T04:47:50.224Z,19.34
2017-03-04T04:48:59.435Z,19.31
2017-03-04T04:50:09.026Z,19.31
2017-03-04T04:51:18.580Z,19.36
2017-03-04T04:52:27.753Z,19.39
2017-03-04T04:53:36.991Z,19.29
2017-03-04T04:54:46.969Z,19.36
2017-03-04T04:55:56.529Z,19.29
2017-03-04T04:57:06.487Z,19.33
2017-03-04T04:58:16.484Z,19.26
2017-03-04T04:59:26.462Z,19.3
2017-03-04T05:00:36.064Z,19.3
2017-03-04T05:01:45.287Z,19.22
2017-03-04T05:02:54.112Z,19.31
2017-03-04T05:04:04.097Z,19.29
2017-03-04T05:05:13.296Z,19.29
2017-03-04T05:06:22.880Z,19.29
2017-03-04T05:07:32.497Z,19.33
2017-03-04T05:08:42.472Z,19.31
2017-03-04T05:09:52.046Z,19.31
2017-03-04T05:11:01.272Z,19.27
2017-03-04T05:12:10.879Z,19.3
2017-03-04T05:13:20.478Z,19.31
2017-03-04T05:14:30.086Z,19.29
2017-03-04T05:15:40.028Z,19.26
2017-03-04T05:16:49.972Z,19.31
2017-03-04T05:17:59.903Z,19.33
2017-03-04T05:19:09.482Z,19.33
2017-03-04T05:20:19.835Z,19.31
2017-03-04T05:21:29.079Z,19.26
2017-03-04T05:22:39.089Z,19.27
2017-03-04T05:23:49.075Z,19.27
2017-03-04T05:24:59.431Z,19.31
2017-03-04T05:26:09.414Z,19.26
2017-03-04T05:27:19.409Z,19.36
2017-03-04T05:28:29.400Z,19.34
2017-03-04T05:29:38.995Z,19.33
2017-03-04T05:30:49.376Z,19.26
2017-03-04T05:31:58.976Z,19.37
2017-03-04T05:33:08.579Z,19.37
2017-03-04T05:34:17.776Z,19.22
2017-03-04T05:35:27.327Z,19.36
2017-03-04T05:36:36.080Z,19.34
2017-03-04T05:37:46.378Z,19.36
2017-03-04T05:38:56.718Z,19.26
2017-03-04T05:40:07.080Z,19.41
2017-03-04T05:41:16.663Z,19.3
2017-03-04T05:42:27.048Z,19.37
2017-03-04T05:43:37.029Z,19.34
2017-03-04T05:44:46.611Z,19.36
2017-03-04T05:45:55.792Z,19.33
2017-03-04T05:47:05.348Z,19.37
2017-03-04T05:48:14.930Z,19.34
2017-03-04T05:49:24.913Z,19.39
2017-03-04T05:50:34.507Z,19.39
2017-03-04T05:51:43.321Z,19.47
2017-03-04T05:52:52.936Z,19.4
2017-03-04T05:54:02.130Z,19.49
2017-03-04T05:55:11.742Z,19.52
2017-03-04T05:56:21.726Z,19.56
2017-03-04T05:57:31.706Z,19.49
2017-03-04T05:58:41.259Z,19.54
2017-03-04T05:59:51.186Z,19.54
2017-03-04T06:01:00.777Z,19.52
2017-03-04T06:02:10.743Z,19.54
2017-03-04T06:03:20.676Z,19.55
2017-03-04T06:04:29.815Z,19.64
2017-03-04T06:05:39.768Z,19.59
2017-03-04T06:06:49.341Z,19.59
2017-03-04T06:07:59.329Z,19.58
2017-03-04T06:09:08.520Z,19.62
2017-03-04T06:10:18.081Z,19.62
2017-03-04T06:11:28.404Z,19.64
2017-03-04T06:12:37.608Z,19.64
2017-03-04T06:13:47.589Z,19.62
2017-03-04T06:14:57.566Z,19.63
2017-03-04T06:16:07.536Z,19.58
2017-03-04T06:17:17.922Z,19.64
2017-03-04T06:18:28.679Z,19.71
2017-03-04T06:19:38.614Z,19.64
2017-03-04T06:20:47.747Z,19.74
2017-03-04T06:21:57.753Z,19.74
2017-03-04T06:23:07.295Z,19.77
2017-03-04T06:24:17.247Z,19.81
2017-03-04T06:25:26.079Z,19.79
2017-03-04T06:26:34.902Z,19.76
2017-03-04T06:27:44.101Z,19.79
2017-03-04T06:28:53.336Z,19.84
2017-03-04T06:30:03.661Z,19.77
2017-03-04T06:31:13.226Z,19.86
2017-03-04T06:32:23.181Z,19.88
2017-03-04T06:33:32.771Z,19.84
2017-03-04T06:34:43.087Z,19.94
2017-03-04T06:35:53.412Z,19.94
2017-03-04T06:37:02.194Z,19.96
2017-03-04T06:38:12.565Z,19.91
2017-03-04T06:39:21.776Z,19.96
2017-03-04T06:40:31.783Z,20.02
2017-03-04T06:41:41.747Z,20.02
2017-03-04T06:42:52.066Z,20.03
2017-03-04T06:44:02.027Z,20.03
2017-03-04T06:45:12.387Z,20
2017-03-04T06:46:21.965Z,19.99
2017-03-04T06:47:31.939Z,20.03
2017-03-04T06:48:41.896Z,20
2017-03-04T06:49:51.468Z,20.07
2017-03-04T06:51:01.456Z,20.11
2017-03-04T06:52:11.050Z,20.13
2017-03-04T06:53:21.046Z,20.09
2017-03-04T06:54:31.026Z,20.1
2017-03-04T06:55:40.620Z,20.13
2017-03-04T06:56:49.821Z,20.16
2017-03-04T06:57:59.437Z,20.25
2017-03-04T06:59:09.015Z,20.19
2017-03-04T07:00:18.617Z,20.22
2017-03-04T07:01:28.572Z,20.28
2017-03-04T07:02:38.550Z,20.26
2017-03-04T07:03:48.121Z,20.26
2017-03-04T07:04:58.491Z,20.31
2017-03-04T07:06:08.092Z,20.29
2017-03-04T07:07:18.477Z,20.36
2017-03-04T07:08:28.407Z,20.26
2017-03-04T07:09:37.628Z,20.32
2017-03-04T07:10:47.218Z,20.34
2017-03-04T07:11:56.800Z,20.37
2017-03-04T07:13:07.169Z,20.39
2017-03-04T07:14:16.343Z,20.26
2017-03-04T07:15:25.905Z,20.44
2017-03-04T07:16:35.486Z,20.47
2017-03-04T07:17:45.472Z,20.4
2017-03-04T07:18:54.664Z,20.43
2017-03-04T07:20:03.874Z,20.5
2017-03-04T07:21:14.234Z,20.47
2017-03-04T07:22:23.819Z,20.47
2017-03-04T07:23:33.763Z,20.47
2017-03-04T07:24:43.356Z,20.48
2017-03-04T07:25:53.314Z,20.51
2017-03-04T07:27:02.888Z,20.44
2017-03-04T07:28:13.243Z,20.58
2017-03-04T07:29:22.009Z,20.62
2017-03-04T07:30:31.205Z,20.5
2017-03-04T07:31:41.184Z,20.58
2017-03-04T07:32:50.796Z,20.55
2017-03-04T07:33:59.960Z,20.59
2017-03-04T07:35:09.936Z,20.59
2017-03-04T07:36:20.315Z,20.65
2017-03-04T07:37:31.061Z,20.6
2017-03-04T07:38:40.292Z,20.62
2017-03-04T07:39:51.081Z,20.65
2017-03-04T07:41:00.663Z,20.69
2017-03-04T07:42:10.217Z,20.65
2017-03-04T07:43:19.779Z,20.72
2017-03-04T07:44:30.095Z,20.63
2017-03-04T07:45:40.034Z,20.72
2017-03-04T07:46:49.260Z,20.7
2017-03-04T07:47:59.235Z,20.77
2017-03-04T07:49:08.458Z,20.7
2017-03-04T07:50:18.075Z,20.78
2017-03-04T07:51:27.289Z,20.9
2017-03-04T07:52:36.062Z,20.77
2017-03-04T07:53:45.647Z,20.75
2017-03-04T07:54:55.624Z,20.85
2017-03-04T07:56:04.792Z,20.92
2017-03-04T07:57:14.403Z,20.85
2017-03-04T07:58:23.224Z,20.9
2017-03-04T07:59:32.417Z,20.84
2017-03-04T08:00:41.585Z,20.84
2017-03-04T08:01:50.368Z,20.92
2017-03-04T08:02:59.965Z,20.92
2017-03-04T08:04:08.783Z,20.99
2017-03-04T08:05:18.359Z,21
2017-03-04T08:06:27.580Z,20.99
2017-03-04T08:07:37.548Z,21.07
2017-03-04T08:08:47.087Z,21.07
2017-03-04T08:09:56.657Z,21.05
2017-03-04T08:11:06.276Z,21.06
2017-03-04T08:12:15.859Z,21.17
2017-03-04T08:13:25.461Z,21.11
2017-03-04T08:14:35.046Z,21.2
2017-03-04T08:15:43.842Z,21.24
2017-03-04T08:16:54.243Z,21.21
2017-03-04T08:18:03.784Z,21.21
2017-03-04T08:19:13.335Z,21.21
2017-03-04T08:20:22.160Z,21.24
2017-03-04T08:21:31.346Z,21.32
2017-03-04T08:22:40.479Z,21.33
2017-03-04T08:23:50.435Z,21.4
2017-03-04T08:25:00.163Z,21.37
2017-03-04T08:26:10.172Z,21.43
2017-03-04T08:27:19.375Z,21.51
2017-03-04T08:28:29.363Z,21.51
2017-03-04T08:29:38.575Z,21.51
2017-03-04T08:30:48.132Z,21.58
2017-03-04T08:31:58.422Z,21.64
2017-03-04T08:33:07.619Z,21.61
2017-03-04T08:34:17.222Z,21.64
2017-03-04T08:35:26.426Z,21.67
2017-03-04T08:36:35.655Z,21.7
2017-03-04T08:37:44.863Z,21.76
2017-03-04T08:38:54.834Z,21.72
2017-03-04T08:40:04.813Z,21.82
2017-03-04T08:41:14.027Z,21.79
2017-03-04T08:42:23.626Z,21.91
2017-03-04T08:43:33.627Z,21.91
2017-03-04T08:44:43.601Z,21.89
2017-03-04T08:45:52.806Z,21.95
2017-03-04T08:47:02.047Z,22.02
2017-03-04T08:48:12.027Z,22.02
2017-03-04T08:49:21.623Z,21.98
2017-03-04T08:50:31.564Z,22
2017-03-04T08:51:41.504Z,22.07
2017-03-04T08:52:51.468Z,22.13
2017-03-04T08:54:00.535Z,22.08
2017-03-04T08:55:10.911Z,22.08
2017-03-04T08:56:20.074Z,22.07
2017-03-04T08:57:29.267Z,22
2017-03-04T08:58:38.871Z,22.13
2017-03-04T08:59:48.441Z,22.13
2017-03-04T09:00:57.646Z,22.06
2017-03-04T09:02:07.638Z,22.14
2017-03-04T09:03:18.389Z,22.1
2017-03-04T09:04:28.780Z,22.13
2017-03-04T09:05:38.397Z,22.06
2017-03-04T09:06:47.980Z,22.15
2017-03-04T09:07:57.941Z,22.18
2017-03-04T09:09:08.193Z,22.17
2017-03-04T09:10:17.786Z,22.15
2017-03-04T09:11:27.773Z,22.15
2017-03-04T09:12:37.378Z,22.23
2017-03-04T09:13:46.601Z,22.26
2017-03-04T09:14:56.974Z,22.28
2017-03-04T09:16:06.582Z,22.2
2017-03-04T09:17:16.200Z,22.25
2017-03-04T09:18:25.419Z,22.33
2017-03-04T09:19:35.371Z,22.35
2017-03-04T09:20:44.920Z,22.39
2017-03-04T09:21:54.114Z,22.35
2017-03-04T09:23:04.128Z,22.35
2017-03-04T09:24:13.728Z,22.36
2017-03-04T09:25:23.308Z,22.39
2017-03-04T09:26:33.687Z,22.35
2017-03-04T09:27:43.731Z,22.3
2017-03-04T09:28:53.750Z,22.3
2017-03-04T09:30:03.192Z,22.29
2017-03-04T09:31:12.005Z,22.33
2017-03-04T09:32:21.606Z,22.29
2017-03-04T09:33:31.575Z,22.28
2017-03-04T09:34:40.783Z,22.26
2017-03-04T09:35:50.376Z,22.3
2017-03-04T09:36:59.988Z,22.26
2017-03-04T09:38:10.342Z,22.26
2017-03-04T09:39:20.733Z,22.25
2017-03-04T09:40:31.093Z,22.28
2017-03-04T09:41:40.288Z,22.22
2017-03-04T09:42:49.456Z,22.25
2017-03-04T09:43:58.659Z,22.26
2017-03-04T09:45:08.261Z,22.29
2017-03-04T09:46:18.637Z,22.23
2017-03-04T09:47:28.203Z,22.23
2017-03-04T09:48:37.777Z,22.3
2017-03-04T09:49:47.363Z,22.29
2017-03-04T09:50:56.585Z,22.33
2017-03-04T09:52:06.561Z,22.41
2017-03-04T09:53:16.151Z,22.3
2017-03-04T09:54:25.743Z,22.32
2017-03-04T09:55:35.729Z,22.33
2017-03-04T09:56:45.321Z,22.39
2017-03-04T09:57:54.920Z,22.39
2017-03-04T09:59:05.255Z,22.43
2017-03-04T10:00:15.219Z,22.45
2017-03-04T10:01:25.182Z,22.47
2017-03-04T10:02:35.185Z,22.48
2017-03-04T10:03:44.798Z,22.48
2017-03-04T10:04:55.181Z,22.6
2017-03-04T10:06:04.773Z,22.62
2017-03-04T10:07:14.364Z,22.76
2017-03-04T10:08:24.355Z,22.69
2017-03-04T10:09:33.184Z,22.72
2017-03-04T10:10:43.169Z,22.83
2017-03-04T10:11:53.182Z,22.9
2017-03-04T10:13:02.407Z,22.98
2017-03-04T10:14:12.326Z,23.13
2017-03-04T10:15:22.280Z,23.2
2017-03-04T10:16:31.111Z,23.36
2017-03-04T10:17:40.314Z,23.41
2017-03-04T10:18:49.490Z,23.44
2017-03-04T10:19:59.464Z,23.48
2017-03-04T10:21:09.049Z,23.55
2017-03-04T10:22:19.022Z,23.47
2017-03-04T10:23:28.622Z,23.47
2017-03-04T10:24:37.836Z,23.5
2017-03-04T10:25:47.851Z,23.4
2017-03-04T10:26:57.856Z,23.41
2017-03-04T10:28:07.063Z,23.31
2017-03-04T10:29:16.273Z,23.23
2017-03-04T10:30:25.856Z,23.28
2017-03-04T10:31:35.408Z,23.21
2017-03-04T10:32:44.605Z,23.13
2017-03-04T10:33:53.778Z,23.13
2017-03-04T10:35:04.278Z,23.21
2017-03-04T10:36:13.856Z,23.2
2017-03-04T10:37:23.423Z,23.37
2017-03-04T10:38:33.401Z,23.43
2017-03-04T10:39:43.368Z,23.66
2017-03-04T10:40:53.358Z,23.92
2017-03-04T10:42:02.550Z,24.24
2017-03-04T10:43:12.510Z,24.54
2017-03-04T10:44:21.718Z,24.69
2017-03-04T10:45:30.534Z,24.89
2017-03-04T10:46:39.356Z,25.21
2017-03-04T10:47:48.506Z,25.25
2017-03-04T10:48:57.667Z,25.31
2017-03-04T10:50:07.243Z,25.33
2017-03-04T10:51:16.465Z,25.38
2017-03-04T10:52:26.486Z,25.41
2017-03-04T10:53:36.080Z,25.5
2017-03-04T10:54:46.031Z,25.44
2017-03-04T10:55:55.235Z,25.36
2017-03-04T10:57:05.564Z,25.44
2017-03-04T10:58:15.905Z,25.43
2017-03-04T10:59:26.286Z,25.55
2017-03-04T11:00:36.226Z,25.75
2017-03-04T11:01:45.008Z,25.96
2017-03-04T11:02:54.964Z,26.23
2017-03-04T11:04:04.520Z,26.34
2017-03-04T11:05:13.701Z,26.44
2017-03-04T11:06:24.052Z,26.48
2017-03-04T11:07:32.850Z,26.4
2017-03-04T11:08:42.827Z,26.34
2017-03-04T11:09:53.196Z,26.22
2017-03-04T11:11:02.764Z,26.07
2017-03-04T11:12:11.920Z,25.85
2017-03-04T11:13:21.868Z,25.91
2017-03-04T11:14:31.435Z,25.8
2017-03-04T11:15:40.631Z,25.95
2017-03-04T11:16:49.485Z,26
2017-03-04T11:17:59.851Z,26.41
2017-03-04T11:19:09.853Z,26.9
2017-03-04T11:20:20.241Z,27.4
2017-03-04T11:21:29.451Z,27.89
2017-03-04T11:22:39.090Z,28.19
2017-03-04T11:23:49.094Z,28.35
2017-03-04T11:24:58.895Z,28.47
2017-03-04T11:26:08.907Z,28.48
2017-03-04T11:27:17.724Z,28.7
2017-03-04T11:28:27.336Z,28.79
2017-03-04T11:29:37.346Z,29.07
2017-03-04T11:30:46.944Z,29.38
2017-03-04T11:31:56.568Z,29.47
2017-03-04T11:33:06.171Z,29.66
2017-03-04T11:34:15.769Z,29.68
2017-03-04T11:35:25.321Z,29.45
2017-03-04T11:36:35.619Z,29.39
2017-03-04T11:37:44.803Z,29.26
2017-03-04T11:38:53.987Z,29.32
2017-03-04T11:40:03.152Z,29.34
2017-03-04T11:41:13.156Z,29.47
2017-03-04T11:42:22.763Z,29.81
2017-03-04T11:43:32.382Z,30.15
2017-03-04T11:44:41.618Z,30.35
2017-03-04T11:45:51.984Z,30.51
2017-03-04T11:47:01.577Z,30.66
2017-03-04T11:48:11.565Z,30.73
2017-03-04T11:49:21.561Z,30.77
2017-03-04T11:50:31.153Z,30.92
2017-03-04T11:51:40.735Z,31.17
2017-03-04T11:52:51.073Z,31.47
2017-03-04T11:54:00.650Z,31.99
2017-03-04T11:55:10.272Z,32.43
2017-03-04T11:56:19.470Z,33.02
2017-03-04T11:57:29.836Z,33.46
2017-03-04T11:58:40.430Z,33.62
2017-03-04T11:59:50.033Z,33.58
2017-03-04T12:00:59.249Z,33.52
2017-03-04T12:02:08.812Z,33.28
2017-03-04T12:03:18.429Z,32.73
2017-03-04T12:04:28.768Z,32.21
2017-03-04T12:05:38.766Z,31.58
2017-03-04T12:06:48.749Z,30.97
2017-03-04T12:07:58.747Z,30.54
2017-03-04T12:09:08.371Z,29.98
2017-03-04T12:10:17.597Z,29.5
2017-03-04T12:11:27.191Z,29.13
2017-03-04T12:12:37.185Z,28.75
2017-03-04T12:13:47.157Z,28.51
2017-03-04T12:14:56.719Z,28.07
2017-03-04T12:16:07.061Z,27.77
2017-03-04T12:17:16.667Z,27.51
2017-03-04T12:18:25.856Z,27.3
2017-03-04T12:19:35.420Z,26.99
2017-03-04T12:20:45.402Z,26.8
2017-03-04T12:21:54.986Z,26.66
2017-03-04T12:23:04.970Z,26.41
2017-03-04T12:24:14.161Z,26.28
2017-03-04T12:25:23.752Z,26.07
2017-03-04T12:26:33.744Z,25.96
2017-03-04T12:27:43.376Z,25.8
2017-03-04T12:28:53.565Z,25.77
2017-03-04T12:30:02.940Z,25.7
2017-03-04T12:31:12.534Z,25.58
2017-03-04T12:32:21.755Z,25.53
2017-03-04T12:33:30.584Z,25.41
2017-03-04T12:34:40.173Z,25.32
2017-03-04T12:35:49.384Z,25.32
2017-03-04T12:36:59.390Z,25.26
2017-03-04T12:38:09.018Z,25.16
2017-03-04T12:39:19.380Z,25.08
2017-03-04T12:40:28.965Z,24.99
2017-03-04T12:41:38.968Z,24.93
2017-03-04T12:42:48.901Z,24.78
2017-03-04T12:43:58.846Z,24.74
2017-03-04T12:45:08.852Z,24.69
2017-03-04T12:46:18.326Z,24.74
2017-03-04T12:47:28.310Z,24.69
2017-03-04T12:48:37.884Z,24.7
2017-03-04T12:49:47.870Z,24.58
2017-03-04T12:50:57.450Z,24.57
2017-03-04T12:52:07.410Z,24.58
2017-03-04T12:53:17.357Z,24.4
2017-03-04T12:54:26.591Z,24.3
2017-03-04T12:55:36.593Z,24.36
2017-03-04T12:56:46.586Z,24.28
2017-03-04T12:57:55.801Z,24.24
2017-03-04T12:59:05.359Z,24.2
2017-03-04T13:00:14.958Z,24.2
2017-03-04T13:01:24.545Z,24.13
2017-03-04T13:02:33.759Z,23.98
2017-03-04T13:03:42.920Z,23.99
2017-03-04T13:04:52.469Z,23.91
2017-03-04T13:06:01.670Z,23.91
2017-03-04T13:07:10.938Z,23.95
2017-03-04T13:08:20.138Z,23.87
2017-03-04T13:09:29.691Z,23.92
2017-03-04T13:10:38.484Z,23.76
2017-03-04T13:11:48.495Z,23.84
2017-03-04T13:12:57.700Z,23.84
2017-03-04T13:14:07.683Z,23.86
2017-03-04T13:15:16.504Z,23.81
2017-03-04T13:16:26.503Z,23.78
2017-03-04T13:17:36.118Z,23.81
2017-03-04T13:18:45.279Z,23.8
2017-03-04T13:19:54.803Z,23.8
2017-03-04T13:21:04.320Z,23.74
2017-03-04T13:22:13.897Z,23.69
2017-03-04T13:23:23.851Z,23.65
2017-03-04T13:24:33.126Z,23.69
2017-03-04T13:25:43.113Z,23.62
2017-03-04T13:26:53.044Z,23.62
2017-03-04T13:28:02.560Z,23.69
2017-03-04T13:29:12.919Z,23.61
2017-03-04T13:30:22.697Z,23.58
2017-03-04T13:31:31.878Z,23.59
2017-03-04T13:32:41.471Z,23.63
2017-03-04T13:33:51.074Z,23.61
2017-03-04T13:35:01.840Z,23.61
2017-03-04T13:36:11.048Z,23.56
2017-03-04T13:37:20.583Z,23.56
2017-03-04T13:38:29.749Z,23.56
2017-03-04T13:39:38.559Z,23.58
2017-03-04T13:40:48.172Z,23.56
2017-03-04T13:41:58.527Z,23.65
2017-03-04T13:43:08.317Z,23.62
2017-03-04T13:44:17.923Z,23.55
2017-03-04T13:45:27.509Z,23.66
2017-03-04T13:46:37.105Z,23.56
2017-03-04T13:47:47.043Z,23.61
2017-03-04T13:48:56.600Z,23.55
2017-03-04T13:50:06.972Z,23.58
2017-03-04T13:51:17.317Z,23.59
2017-03-04T13:52:26.461Z,23.59
2017-03-04T13:53:35.988Z,23.61
2017-03-04T13:54:45.173Z,23.55
2017-03-04T13:55:53.991Z,23.58
2017-03-04T13:57:04.014Z,23.56
2017-03-04T13:58:14.017Z,23.55
2017-03-04T13:59:23.175Z,23.51
2017-03-04T14:00:32.740Z,23.48
2017-03-04T14:01:41.540Z,23.5
2017-03-04T14:02:51.109Z,23.44
2017-03-04T14:03:59.863Z,23.55
2017-03-04T14:05:10.526Z,23.5
2017-03-04T14:06:20.510Z,23.54
2017-03-04T14:07:30.477Z,23.47
2017-03-04T14:08:40.835Z,23.48
2017-03-04T14:09:50.395Z,23.48
2017-03-04T14:10:59.606Z,23.43
2017-03-04T14:12:09.958Z,23.41
2017-03-04T14:13:19.553Z,23.43
2017-03-04T14:14:29.101Z,23.34
2017-03-04T14:15:39.034Z,23.4
2017-03-04T14:16:48.231Z,23.32
2017-03-04T14:17:58.241Z,23.4
2017-03-04T14:19:08.194Z,23.32
2017-03-04T14:20:17.780Z,23.32
2017-03-04T14:21:27.721Z,23.28
2017-03-04T14:22:37.726Z,23.27
2017-03-04T14:23:47.324Z,23.36
2017-03-04T14:24:56.939Z,23.28
2017-03-04T14:26:06.923Z,23.23
2017-03-04T14:27:16.135Z,23.21
2017-03-04T14:28:24.956Z,23.2
2017-03-04T14:29:35.345Z,23.27
2017-03-04T14:30:45.321Z,23.13
2017-03-04T14:31:55.257Z,23.13
2017-03-04T14:33:05.254Z,23.12
2017-03-04T14:34:15.243Z,23.13
2017-03-04T14:35:24.895Z,23.12
2017-03-04T14:36:34.842Z,23.1
2017-03-04T14:37:44.416Z,23.13
2017-03-04T14:38:53.651Z,23.1
2017-03-04T14:40:02.838Z,23.06
2017-03-04T14:41:12.052Z,23.05
2017-03-04T14:42:21.654Z,23.02
2017-03-04T14:43:30.861Z,23.06
2017-03-04T14:44:40.834Z,23.05
2017-03-04T14:45:50.836Z,23.09
2017-03-04T14:47:00.434Z,23.02
2017-03-04T14:48:10.015Z,23
2017-03-04T14:49:19.579Z,23.06
2017-03-04T14:50:28.414Z,23.06
2017-03-04T14:51:38.217Z,23.03
2017-03-04T14:52:47.807Z,23.02
2017-03-04T14:53:57.390Z,22.99
2017-03-04T14:55:06.987Z,23.02
2017-03-04T14:56:16.610Z,23
2017-03-04T14:57:25.664Z,22.96
2017-03-04T14:58:35.252Z,22.98
2017-03-04T14:59:44.849Z,23.03
2017-03-04T15:00:54.066Z,22.99